sensor_id;sensor_type;location;lat;lon;timestamp;pressure;altitude;pressure_sealevel;temperature
79089;BMP280;68489;50.286;9.452;2023-05-16T00:00:38;97145.91;;;11.89
79089;BMP280;68489;50.286;9.452;2023-05-16T00:03:04;97146.66;;;11.90
79089;BMP280;68489;50.286;9.452;2023-05-16T00:05:30;97141.63;;;11.83
79089;BMP280;68489;50.286;9.452;2023-05-16T00:07:55;97151.97;;;11.81
79089;BMP280;68489;50.286;9.452;2023-05-16T00:10:21;97143.84;;;11.75
79089;BMP280;68489;50.286;9.452;2023-05-16T00:12:46;97137.50;;;11.73
79089;BMP280;68489;50.286;9.452;2023-05-16T00:15:12;97140.16;;;11.73
79089;BMP280;68489;50.286;9.452;2023-05-16T00:17:38;97140.28;;;11.69
79089;BMP280;68489;50.286;9.452;2023-05-16T00:20:05;97136.75;;;11.63
79089;BMP280;68489;50.286;9.452;2023-05-16T00:22:32;97142.56;;;11.52
79089;BMP280;68489;50.286;9.452;2023-05-16T00:24:57;97131.28;;;11.39
79089;BMP280;68489;50.286;9.452;2023-05-16T00:27:22;97140.59;;;11.25
79089;BMP280;68489;50.286;9.452;2023-05-16T00:29:47;97135.13;;;11.20
79089;BMP280;68489;50.286;9.452;2023-05-16T00:32:12;97136.75;;;11.08
79089;BMP280;68489;50.286;9.452;2023-05-16T00:34:38;97135.72;;;10.96
79089;BMP280;68489;50.286;9.452;2023-05-16T00:37:03;97141.56;;;10.82
79089;BMP280;68489;50.286;9.452;2023-05-16T00:39:29;97147.47;;;10.77
79089;BMP280;68489;50.286;9.452;2023-05-16T00:41:55;97148.63;;;10.67
79089;BMP280;68489;50.286;9.452;2023-05-16T00:44:21;97152.75;;;10.58
79089;BMP280;68489;50.286;9.452;2023-05-16T00:46:47;97145.47;;;10.50
79089;BMP280;68489;50.286;9.452;2023-05-16T00:49:12;97140.69;;;10.45
79089;BMP280;68489;50.286;9.452;2023-05-16T00:51:38;97143.38;;;10.45
79089;BMP280;68489;50.286;9.452;2023-05-16T00:54:04;97142.66;;;10.53
79089;BMP280;68489;50.286;9.452;2023-05-16T00:56:30;97137.72;;;10.74
79089;BMP280;68489;50.286;9.452;2023-05-16T00:58:55;97140.56;;;10.88
79089;BMP280;68489;50.286;9.452;2023-05-16T01:01:22;97136.56;;;10.93
79089;BMP280;68489;50.286;9.452;2023-05-16T01:03:49;97141.03;;;10.96
79089;BMP280;68489;50.286;9.452;2023-05-16T01:06:14;97140.41;;;11.01
79089;BMP280;68489;50.286;9.452;2023-05-16T01:08:40;97141.31;;;11.07
79089;BMP280;68489;50.286;9.452;2023-05-16T01:14:19;97147.25;;;11.11
79089;BMP280;68489;50.286;9.452;2023-05-16T01:16:55;97145.03;;;11.10
79089;BMP280;68489;50.286;9.452;2023-05-16T01:19:46;97151.84;;;11.11
79089;BMP280;68489;50.286;9.452;2023-05-16T01:25:01;97149.31;;;11.07
79089;BMP280;68489;50.286;9.452;2023-05-16T01:27:29;97150.22;;;11.04
79089;BMP280;68489;50.286;9.452;2023-05-16T01:29:56;97153.59;;;11.05
79089;BMP280;68489;50.286;9.452;2023-05-16T01:32:21;97148.44;;;11.10
79089;BMP280;68489;50.286;9.452;2023-05-16T01:34:47;97146.97;;;11.19
79089;BMP280;68489;50.286;9.452;2023-05-16T01:37:20;97148.59;;;11.16
79089;BMP280;68489;50.286;9.452;2023-05-16T01:39:55;97144.59;;;11.21
79089;BMP280;68489;50.286;9.452;2023-05-16T01:42:26;97145.91;;;11.16
79089;BMP280;68489;50.286;9.452;2023-05-16T01:45:07;97143.25;;;11.07
79089;BMP280;68489;50.286;9.452;2023-05-16T01:47:35;97150.78;;;11.08
79089;BMP280;68489;50.286;9.452;2023-05-16T01:50:09;97146.19;;;11.00
79089;BMP280;68489;50.286;9.452;2023-05-16T01:52:41;97152.97;;;11.01
79089;BMP280;68489;50.286;9.452;2023-05-16T01:55:10;97157.41;;;10.95
79089;BMP280;68489;50.286;9.452;2023-05-16T01:57:39;97157.09;;;10.83
79089;BMP280;68489;50.286;9.452;2023-05-16T02:00:06;97154.75;;;10.85
79089;BMP280;68489;50.286;9.452;2023-05-16T02:02:32;97161.34;;;10.72
79089;BMP280;68489;50.286;9.452;2023-05-16T02:04:57;97162.22;;;10.69
79089;BMP280;68489;50.286;9.452;2023-05-16T02:07:23;97162.22;;;10.69
79089;BMP280;68489;50.286;9.452;2023-05-16T02:09:48;97165.31;;;10.67
79089;BMP280;68489;50.286;9.452;2023-05-16T02:12:13;97166.16;;;10.55
79089;BMP280;68489;50.286;9.452;2023-05-16T02:14:39;97165.72;;;10.56
79089;BMP280;68489;50.286;9.452;2023-05-16T02:17:04;97158.13;;;10.46
79089;BMP280;68489;50.286;9.452;2023-05-16T02:19:30;97161.84;;;10.48
79089;BMP280;68489;50.286;9.452;2023-05-16T02:21:55;97164.50;;;10.48
79089;BMP280;68489;50.286;9.452;2023-05-16T02:24:20;97161.38;;;10.41
79089;BMP280;68489;50.286;9.452;2023-05-16T02:26:46;97166.69;;;10.41
79089;BMP280;68489;50.286;9.452;2023-05-16T02:29:11;97157.66;;;10.38
79089;BMP280;68489;50.286;9.452;2023-05-16T02:31:36;97155.00;;;10.38
79089;BMP280;68489;50.286;9.452;2023-05-16T02:34:02;97159.28;;;10.35
79089;BMP280;68489;50.286;9.452;2023-05-16T02:36:27;97165.66;;;10.38
79089;BMP280;68489;50.286;9.452;2023-05-16T02:38:53;97163.00;;;10.38
79089;BMP280;68489;50.286;9.452;2023-05-16T02:41:18;97164.72;;;10.32
79089;BMP280;68489;50.286;9.452;2023-05-16T02:43:47;97172.28;;;10.33
79089;BMP280;68489;50.286;9.452;2023-05-16T02:46:25;97165.91;;;10.31
79089;BMP280;68489;50.286;9.452;2023-05-16T02:48:52;97164.84;;;10.28
79089;BMP280;68489;50.286;9.452;2023-05-16T02:51:20;97166.03;;;10.27
79089;BMP280;68489;50.286;9.452;2023-05-16T02:53:45;97157.75;;;10.25
79089;BMP280;68489;50.286;9.452;2023-05-16T02:56:10;97167.34;;;10.23
79089;BMP280;68489;50.286;9.452;2023-05-16T02:58:36;97167.34;;;10.23
79089;BMP280;68489;50.286;9.452;2023-05-16T03:01:01;97159.47;;;10.19
79089;BMP280;68489;50.286;9.452;2023-05-16T03:03:26;97167.88;;;10.18
79089;BMP280;68489;50.286;9.452;2023-05-16T03:05:51;97169.94;;;10.13
79089;BMP280;68489;50.286;9.452;2023-05-16T03:08:17;97164.13;;;10.06
79089;BMP280;68489;50.286;9.452;2023-05-16T03:10:42;97160.38;;;9.94
79089;BMP280;68489;50.286;9.452;2023-05-16T03:13:08;97173.31;;;9.92
79089;BMP280;68489;50.286;9.452;2023-05-16T03:15:33;97166.03;;;9.83
79089;BMP280;68489;50.286;9.452;2023-05-16T03:17:58;97170.84;;;9.76
79089;BMP280;68489;50.286;9.452;2023-05-16T03:20:23;97171.19;;;9.78
79089;BMP280;68489;50.286;9.452;2023-05-16T03:22:48;97176.03;;;9.79
79089;BMP280;68489;50.286;9.452;2023-05-16T03:25:14;97181.69;;;9.81
79089;BMP280;68489;50.286;9.452;2023-05-16T03:27:39;97176.47;;;10.00
79089;BMP280;68489;50.286;9.452;2023-05-16T03:30:05;97182.16;;;10.11
79089;BMP280;68489;50.286;9.452;2023-05-16T03:32:32;97182.00;;;10.05
79089;BMP280;68489;50.286;9.452;2023-05-16T03:34:57;97183.06;;;10.08
79089;BMP280;68489;50.286;9.452;2023-05-16T03:37:22;97180.41;;;10.08
79089;BMP280;68489;50.286;9.452;2023-05-16T03:39:48;97177.53;;;10.02
79089;BMP280;68489;50.286;9.452;2023-05-16T03:42:13;97187.09;;;10.00
79089;BMP280;68489;50.286;9.452;2023-05-16T03:44:38;97183.72;;;9.99
79089;BMP280;68489;50.286;9.452;2023-05-16T03:47:04;97187.03;;;9.91
79089;BMP280;68489;50.286;9.452;2023-05-16T03:49:29;97188.91;;;9.81
79089;BMP280;68489;50.286;9.452;2023-05-16T03:51:54;97198.88;;;9.77
79089;BMP280;68489;50.286;9.452;2023-05-16T03:54:21;97198.41;;;9.69
79089;BMP280;68489;50.286;9.452;2023-05-16T03:56:46;97197.63;;;9.69
79089;BMP280;68489;50.286;9.452;2023-05-16T03:59:11;97197.22;;;9.57
79089;BMP280;68489;50.286;9.452;2023-05-16T04:01:37;97199.72;;;9.52
79089;BMP280;68489;50.286;9.452;2023-05-16T04:04:02;97201.88;;;9.44
79089;BMP280;68489;50.286;9.452;2023-05-16T04:06:27;97205.03;;;9.39
79089;BMP280;68489;50.286;9.452;2023-05-16T04:08:53;97200.47;;;9.39
79089;BMP280;68489;50.286;9.452;2023-05-16T04:11:18;97203.75;;;9.44
79089;BMP280;68489;50.286;9.452;2023-05-16T04:13:43;97206.19;;;9.51
79089;BMP280;68489;50.286;9.452;2023-05-16T04:16:09;97207.28;;;9.75
79089;BMP280;68489;50.286;9.452;2023-05-16T04:18:34;97208.34;;;9.78
79089;BMP280;68489;50.286;9.452;2023-05-16T04:20:59;97206.66;;;9.71
79089;BMP280;68489;50.286;9.452;2023-05-16T04:23:24;97215.81;;;9.70
79089;BMP280;68489;50.286;9.452;2023-05-16T04:25:50;97220.56;;;9.75
79089;BMP280;68489;50.286;9.452;2023-05-16T04:28:15;97220.50;;;9.88
79089;BMP280;68489;50.286;9.452;2023-05-16T04:30:40;97211.97;;;9.93
79089;BMP280;68489;50.286;9.452;2023-05-16T04:33:06;97216.03;;;9.98
79089;BMP280;68489;50.286;9.452;2023-05-16T04:35:31;97215.28;;;9.97
79089;BMP280;68489;50.286;9.452;2023-05-16T04:37:57;97220.91;;;9.99
79089;BMP280;68489;50.286;9.452;2023-05-16T04:40:22;97224.59;;;10.02
79089;BMP280;68489;50.286;9.452;2023-05-16T04:42:49;97235.19;;;10.15
79089;BMP280;68489;50.286;9.452;2023-05-16T04:45:15;97234.19;;;10.21
79089;BMP280;68489;50.286;9.452;2023-05-16T04:47:40;97232.34;;;10.31
79089;BMP280;68489;50.286;9.452;2023-05-16T04:50:06;97232.38;;;10.40
79089;BMP280;68489;50.286;9.452;2023-05-16T04:52:33;97229.66;;;10.53
79089;BMP280;68489;50.286;9.452;2023-05-16T04:54:58;97237.34;;;10.60
79089;BMP280;68489;50.286;9.452;2023-05-16T04:57:24;97241.69;;;10.67
79089;BMP280;68489;50.286;9.452;2023-05-16T04:59:50;97237.13;;;10.76
79089;BMP280;68489;50.286;9.452;2023-05-16T05:02:15;97240.13;;;10.87
79089;BMP280;68489;50.286;9.452;2023-05-16T05:04:40;97234.13;;;10.96
79089;BMP280;68489;50.286;9.452;2023-05-16T05:07:05;97240.50;;;10.99
79089;BMP280;68489;50.286;9.452;2023-05-16T05:09:32;97247.47;;;11.05
79089;BMP280;68489;50.286;9.452;2023-05-16T05:11:57;97252.78;;;11.05
79089;BMP280;68489;50.286;9.452;2023-05-16T05:14:22;97250.91;;;11.15
79089;BMP280;68489;50.286;9.452;2023-05-16T05:16:48;97256.81;;;11.19
79089;BMP280;68489;50.286;9.452;2023-05-16T05:19:13;97257.88;;;11.22
79089;BMP280;68489;50.286;9.452;2023-05-16T05:21:38;97258.91;;;11.33
79089;BMP280;68489;50.286;9.452;2023-05-16T05:24:04;97259.09;;;11.48
79089;BMP280;68489;50.286;9.452;2023-05-16T05:26:29;97257.63;;;11.56
79089;BMP280;68489;50.286;9.452;2023-05-16T05:28:55;97264.03;;;11.68
79089;BMP280;68489;50.286;9.452;2023-05-16T05:31:20;97258.41;;;11.75
79089;BMP280;68489;50.286;9.452;2023-05-16T05:33:45;97260.59;;;11.77
79089;BMP280;68489;50.286;9.452;2023-05-16T05:36:10;97259.59;;;11.83
79089;BMP280;68489;50.286;9.452;2023-05-16T05:38:36;97255.13;;;11.89
79089;BMP280;68489;50.286;9.452;2023-05-16T05:41:01;97263.56;;;11.88
79089;BMP280;68489;50.286;9.452;2023-05-16T05:43:27;97255.13;;;11.80
79089;BMP280;68489;50.286;9.452;2023-05-16T05:45:52;97264.47;;;11.76
79089;BMP280;68489;50.286;9.452;2023-05-16T05:48:18;97262.53;;;11.85
79089;BMP280;68489;50.286;9.452;2023-05-16T05:50:43;97251.88;;;11.67
79089;BMP280;68489;50.286;9.452;2023-05-16T05:53:08;97258.53;;;11.62
79089;BMP280;68489;50.286;9.452;2023-05-16T05:55:34;97262.94;;;11.56
79089;BMP280;68489;50.286;9.452;2023-05-16T05:57:59;97267.25;;;11.54
79089;BMP280;68489;50.286;9.452;2023-05-16T06:00:24;97272.41;;;11.48
79089;BMP280;68489;50.286;9.452;2023-05-16T06:02:50;97271.19;;;11.40
79089;BMP280;68489;50.286;9.452;2023-05-16T06:05:15;97277.72;;;11.30
79089;BMP280;68489;50.286;9.452;2023-05-16T06:07:40;97284.34;;;11.34
79089;BMP280;68489;50.286;9.452;2023-05-16T06:10:06;97289.22;;;11.27
79089;BMP280;68489;50.286;9.452;2023-05-16T06:12:32;97286.41;;;11.21
79089;BMP280;68489;50.286;9.452;2023-05-16T06:14:57;97295.84;;;11.13
79089;BMP280;68489;50.286;9.452;2023-05-16T06:17:23;97302.78;;;11.10
79089;BMP280;68489;50.286;9.452;2023-05-16T06:19:48;97303.34;;;11.05
79089;BMP280;68489;50.286;9.452;2023-05-16T06:22:13;97302.44;;;11.08
79089;BMP280;68489;50.286;9.452;2023-05-16T06:24:39;97303.75;;;11.04
79089;BMP280;68489;50.286;9.452;2023-05-16T06:27:04;97310.28;;;11.03
79089;BMP280;68489;50.286;9.452;2023-05-16T06:29:30;97308.31;;;10.94
79089;BMP280;68489;50.286;9.452;2023-05-16T06:31:55;97315.44;;;10.97
79089;BMP280;68489;50.286;9.452;2023-05-16T06:34:20;97313.47;;;10.88
79089;BMP280;68489;50.286;9.452;2023-05-16T06:36:51;97323.19;;;10.82
79089;BMP280;68489;50.286;9.452;2023-05-16T06:39:16;97327.38;;;10.71
79089;BMP280;68489;50.286;9.452;2023-05-16T06:41:42;97334.44;;;10.65
79089;BMP280;68489;50.286;9.452;2023-05-16T06:44:07;97340.22;;;10.63
79089;BMP280;68489;50.286;9.452;2023-05-16T06:46:32;97338.84;;;10.58
79089;BMP280;68489;50.286;9.452;2023-05-16T06:48:57;97337.63;;;10.59
79089;BMP280;68489;50.286;9.452;2023-05-16T06:51:23;97340.03;;;10.57
79089;BMP280;68489;50.286;9.452;2023-05-16T06:53:48;97352.50;;;10.48
79089;BMP280;68489;50.286;9.452;2023-05-16T06:56:13;97345.69;;;10.47
79089;BMP280;68489;50.286;9.452;2023-05-16T06:58:38;97351.78;;;10.34
79089;BMP280;68489;50.286;9.452;2023-05-16T07:01:04;97357.56;;;10.33
79089;BMP280;68489;50.286;9.452;2023-05-16T07:03:29;97358.44;;;10.17
79089;BMP280;68489;50.286;9.452;2023-05-16T07:05:55;97359.91;;;10.18
79089;BMP280;68489;50.286;9.452;2023-05-16T07:08:22;97358.81;;;10.06
79089;BMP280;68489;50.286;9.452;2023-05-16T07:10:47;97365.50;;;9.98
79089;BMP280;68489;50.286;9.452;2023-05-16T07:13:12;97363.81;;;9.92
79089;BMP280;68489;50.286;9.452;2023-05-16T07:15:37;97372.97;;;9.91
79089;BMP280;68489;50.286;9.452;2023-05-16T07:18:03;97377.09;;;9.92
79089;BMP280;68489;50.286;9.452;2023-05-16T07:20:28;97383.50;;;9.81
79089;BMP280;68489;50.286;9.452;2023-05-16T07:22:53;97394.22;;;9.78
79089;BMP280;68489;50.286;9.452;2023-05-16T07:25:21;97389.53;;;9.82
79089;BMP280;68489;50.286;9.452;2023-05-16T07:27:46;97385.81;;;9.79
79089;BMP280;68489;50.286;9.452;2023-05-16T07:30:13;97392.72;;;9.90
79089;BMP280;68489;50.286;9.452;2023-05-16T07:32:38;97399.16;;;10.01
79089;BMP280;68489;50.286;9.452;2023-05-16T07:35:04;97399.81;;;10.05
79089;BMP280;68489;50.286;9.452;2023-05-16T07:37:30;97401.91;;;10.23
79089;BMP280;68489;50.286;9.452;2023-05-16T07:39:55;97401.13;;;10.35
79089;BMP280;68489;50.286;9.452;2023-05-16T07:42:20;97401.91;;;10.58
79089;BMP280;68489;50.286;9.452;2023-05-16T07:44:46;97400.56;;;10.75
79089;BMP280;68489;50.286;9.452;2023-05-16T07:47:12;97405.66;;;10.82
79089;BMP280;68489;50.286;9.452;2023-05-16T07:49:37;97405.06;;;10.87
79089;BMP280;68489;50.286;9.452;2023-05-16T07:52:03;97406.06;;;11.03
79089;BMP280;68489;50.286;9.452;2023-05-16T07:54:29;97402.47;;;10.97
79089;BMP280;68489;50.286;9.452;2023-05-16T07:56:55;97408.59;;;11.06
79089;BMP280;68489;50.286;9.452;2023-05-16T07:59:21;97417.56;;;11.22
79089;BMP280;68489;50.286;9.452;2023-05-16T08:01:46;97409.38;;;11.38
79089;BMP280;68489;50.286;9.452;2023-05-16T08:04:11;97415.72;;;11.41
79089;BMP280;68489;50.286;9.452;2023-05-16T08:06:37;97413.06;;;11.41
79089;BMP280;68489;50.286;9.452;2023-05-16T08:09:02;97408.63;;;11.37
79089;BMP280;68489;50.286;9.452;2023-05-16T08:11:27;97415.84;;;11.37
79089;BMP280;68489;50.286;9.452;2023-05-16T08:13:52;97414.94;;;11.31
79089;BMP280;68489;50.286;9.452;2023-05-16T08:16:17;97411.34;;;11.25
79089;BMP280;68489;50.286;9.452;2023-05-16T08:18:43;97422.25;;;11.18
79089;BMP280;68489;50.286;9.452;2023-05-16T08:21:08;97428.41;;;11.05
79089;BMP280;68489;50.286;9.452;2023-05-16T08:23:34;97429.09;;;10.75
79089;BMP280;68489;50.286;9.452;2023-05-16T08:26:00;97431.00;;;10.74
79089;BMP280;68489;50.286;9.452;2023-05-16T08:28:25;97439.72;;;10.40
79089;BMP280;68489;50.286;9.452;2023-05-16T08:30:50;97432.19;;;10.26
79089;BMP280;68489;50.286;9.452;2023-05-16T08:33:16;97445.00;;;10.05
79089;BMP280;68489;50.286;9.452;2023-05-16T08:35:42;97445.84;;;9.90
79089;BMP280;68489;50.286;9.452;2023-05-16T08:38:08;97456.88;;;9.88
79089;BMP280;68489;50.286;9.452;2023-05-16T08:40:33;97453.88;;;9.73
79089;BMP280;68489;50.286;9.452;2023-05-16T08:42:59;97464.63;;;9.70
79089;BMP280;68489;50.286;9.452;2023-05-16T08:45:25;97455.06;;;9.59
79089;BMP280;68489;50.286;9.452;2023-05-16T08:47:53;97460.16;;;9.67
79089;BMP280;68489;50.286;9.452;2023-05-16T08:50:18;97463.56;;;9.67
79089;BMP280;68489;50.286;9.452;2023-05-16T08:52:46;97458.66;;;9.66
79089;BMP280;68489;50.286;9.452;2023-05-16T08:55:12;97457.81;;;9.69
79089;BMP280;68489;50.286;9.452;2023-05-16T08:57:39;97462.72;;;9.70
79089;BMP280;68489;50.286;9.452;2023-05-16T09:00:09;97459.63;;;9.84
79089;BMP280;68489;50.286;9.452;2023-05-16T09:02:40;97459.53;;;10.01
79089;BMP280;68489;50.286;9.452;2023-05-16T09:05:07;97449.34;;;9.86
79089;BMP280;68489;50.286;9.452;2023-05-16T09:07:33;97460.03;;;10.21
79089;BMP280;68489;50.286;9.452;2023-05-16T09:09:59;97458.09;;;10.47
79089;BMP280;68489;50.286;9.452;2023-05-16T09:12:24;97458.53;;;10.68
79089;BMP280;68489;50.286;9.452;2023-05-16T09:14:50;97462.00;;;10.90
79089;BMP280;68489;50.286;9.452;2023-05-16T09:17:16;97465.38;;;11.12
79089;BMP280;68489;50.286;9.452;2023-05-16T09:19:42;97448.41;;;11.41
79089;BMP280;68489;50.286;9.452;2023-05-16T09:22:09;97452.09;;;11.84
79089;BMP280;68489;50.286;9.452;2023-05-16T09:24:43;97451.63;;;12.26
79089;BMP280;68489;50.286;9.452;2023-05-16T09:27:12;97452.25;;;12.67
79089;BMP280;68489;50.286;9.452;2023-05-16T09:29:42;97460.06;;;13.16
79089;BMP280;68489;50.286;9.452;2023-05-16T09:32:17;97473.28;;;13.53
79089;BMP280;68489;50.286;9.452;2023-05-16T09:34:43;97469.63;;;13.41
79089;BMP280;68489;50.286;9.452;2023-05-16T09:37:10;97473.88;;;13.14
79089;BMP280;68489;50.286;9.452;2023-05-16T09:39:39;97474.06;;;13.77
79089;BMP280;68489;50.286;9.452;2023-05-16T09:42:09;97485.44;;;14.20
79089;BMP280;68489;50.286;9.452;2023-05-16T09:44:36;97471.50;;;14.16
79089;BMP280;68489;50.286;9.452;2023-05-16T09:47:01;97477.22;;;14.48
79089;BMP280;68489;50.286;9.452;2023-05-16T09:49:26;97485.56;;;16.09
79089;BMP280;68489;50.286;9.452;2023-05-16T09:51:51;97484.16;;;16.86
79089;BMP280;68489;50.286;9.452;2023-05-16T09:54:29;97488.06;;;17.16
79089;BMP280;68489;50.286;9.452;2023-05-16T09:56:54;97483.28;;;17.69
79089;BMP280;68489;50.286;9.452;2023-05-16T09:59:20;97483.78;;;18.27
79089;BMP280;68489;50.286;9.452;2023-05-16T10:01:46;97492.91;;;19.24
79089;BMP280;68489;50.286;9.452;2023-05-16T10:04:11;97481.09;;;19.39
79089;BMP280;68489;50.286;9.452;2023-05-16T10:06:40;97492.03;;;19.74
79089;BMP280;68489;50.286;9.452;2023-05-16T10:09:09;97495.59;;;18.91
79089;BMP280;68489;50.286;9.452;2023-05-16T10:11:35;97490.47;;;18.82
79089;BMP280;68489;50.286;9.452;2023-05-16T10:14:01;97486.31;;;18.86
79089;BMP280;68489;50.286;9.452;2023-05-16T10:16:28;97488.25;;;19.25
79089;BMP280;68489;50.286;9.452;2023-05-16T10:18:54;97487.00;;;18.70
79089;BMP280;68489;50.286;9.452;2023-05-16T10:21:21;97492.53;;;18.16
79089;BMP280;68489;50.286;9.452;2023-05-16T10:23:49;97495.69;;;18.09
79089;BMP280;68489;50.286;9.452;2023-05-16T10:26:16;97493.88;;;17.41
79089;BMP280;68489;50.286;9.452;2023-05-16T10:28:41;97493.59;;;17.01
79089;BMP280;68489;50.286;9.452;2023-05-16T10:31:08;97492.34;;;17.71
79089;BMP280;68489;50.286;9.452;2023-05-16T10:33:34;97485.13;;;18.00
79089;BMP280;68489;50.286;9.452;2023-05-16T10:36:00;97489.09;;;18.10
79089;BMP280;68489;50.286;9.452;2023-05-16T10:38:26;97492.94;;;17.92
79089;BMP280;68489;50.286;9.452;2023-05-16T10:40:52;97495.69;;;18.03
79089;BMP280;68489;50.286;9.452;2023-05-16T10:43:23;97498.97;;;18.35
79089;BMP280;68489;50.286;9.452;2023-05-16T10:45:58;97493.31;;;17.31
79089;BMP280;68489;50.286;9.452;2023-05-16T10:48:31;97500.16;;;17.00
79089;BMP280;68489;50.286;9.452;2023-05-16T10:50:57;97498.34;;;16.40
79089;BMP280;68489;50.286;9.452;2023-05-16T10:53:33;97497.34;;;16.17
79089;BMP280;68489;50.286;9.452;2023-05-16T10:58:41;97502.63;;;15.70
79089;BMP280;68489;50.286;9.452;2023-05-16T11:01:26;97501.09;;;15.84
79089;BMP280;68489;50.286;9.452;2023-05-16T11:06:26;97502.06;;;15.66
79089;BMP280;68489;50.286;9.452;2023-05-16T11:17:09;97504.03;;;17.62
79089;BMP280;68489;50.286;9.452;2023-05-16T11:19:39;97500.50;;;19.15
79089;BMP280;68489;50.286;9.452;2023-05-16T11:24:58;97505.88;;;20.83
79089;BMP280;68489;50.286;9.452;2023-05-16T11:27:46;97512.56;;;20.00
79089;BMP280;68489;50.286;9.452;2023-05-16T11:30:13;97497.50;;;22.54
79089;BMP280;68489;50.286;9.452;2023-05-16T11:32:41;97502.69;;;23.50
79089;BMP280;68489;50.286;9.452;2023-05-16T11:35:08;97489.81;;;23.98
79089;BMP280;68489;50.286;9.452;2023-05-16T11:37:35;97505.41;;;23.98
79089;BMP280;68489;50.286;9.452;2023-05-16T11:40:04;97496.59;;;22.14
79089;BMP280;68489;50.286;9.452;2023-05-16T11:42:33;97492.88;;;21.98
79089;BMP280;68489;50.286;9.452;2023-05-16T11:45:06;97489.78;;;21.70
79089;BMP280;68489;50.286;9.452;2023-05-16T11:47:32;97503.72;;;19.99
79089;BMP280;68489;50.286;9.452;2023-05-16T11:49:58;97519.19;;;19.88
79089;BMP280;68489;50.286;9.452;2023-05-16T11:52:23;97525.47;;;21.19
79089;BMP280;68489;50.286;9.452;2023-05-16T11:54:48;97508.91;;;22.79
79089;BMP280;68489;50.286;9.452;2023-05-16T11:57:15;97512.41;;;24.27
79089;BMP280;68489;50.286;9.452;2023-05-16T11:59:41;97513.03;;;23.39
79089;BMP280;68489;50.286;9.452;2023-05-16T12:02:07;97502.06;;;23.31
79089;BMP280;68489;50.286;9.452;2023-05-16T12:04:34;97504.88;;;21.84
79089;BMP280;68489;50.286;9.452;2023-05-16T12:07:00;97518.16;;;20.90
79089;BMP280;68489;50.286;9.452;2023-05-16T12:09:26;97508.59;;;21.81
79089;BMP280;68489;50.286;9.452;2023-05-16T12:11:51;97513.03;;;22.54
79089;BMP280;68489;50.286;9.452;2023-05-16T12:14:17;97503.22;;;23.09
79089;BMP280;68489;50.286;9.452;2023-05-16T12:16:43;97520.47;;;22.80
79089;BMP280;68489;50.286;9.452;2023-05-16T12:19:10;97511.66;;;22.28
79089;BMP280;68489;50.286;9.452;2023-05-16T12:21:36;97515.53;;;20.43
79089;BMP280;68489;50.286;9.452;2023-05-16T12:24:02;97523.75;;;19.40
79089;BMP280;68489;50.286;9.452;2023-05-16T12:26:31;97529.94;;;20.10
79089;BMP280;68489;50.286;9.452;2023-05-16T12:29:01;97523.06;;;21.65
79089;BMP280;68489;50.286;9.452;2023-05-16T12:31:33;97519.00;;;22.47
79089;BMP280;68489;50.286;9.452;2023-05-16T12:33:59;97513.88;;;21.92
79089;BMP280;68489;50.286;9.452;2023-05-16T12:36:25;97525.09;;;20.80
79089;BMP280;68489;50.286;9.452;2023-05-16T12:38:51;97531.38;;;20.93
79089;BMP280;68489;50.286;9.452;2023-05-16T12:41:21;97520.75;;;21.25
79089;BMP280;68489;50.286;9.452;2023-05-16T12:43:48;97525.31;;;20.82
79089;BMP280;68489;50.286;9.452;2023-05-16T12:46:13;97514.59;;;21.74
79089;BMP280;68489;50.286;9.452;2023-05-16T12:48:39;97522.03;;;20.59
79089;BMP280;68489;50.286;9.452;2023-05-16T12:51:13;97521.16;;;21.97
79089;BMP280;68489;50.286;9.452;2023-05-16T12:53:41;97524.41;;;22.65
79089;BMP280;68489;50.286;9.452;2023-05-16T12:56:08;97511.34;;;23.09
79089;BMP280;68489;50.286;9.452;2023-05-16T12:58:33;97520.25;;;21.76
79089;BMP280;68489;50.286;9.452;2023-05-16T13:00:58;97523.97;;;20.64
79089;BMP280;68489;50.286;9.452;2023-05-16T13:03:23;97529.91;;;19.24
79089;BMP280;68489;50.286;9.452;2023-05-16T13:05:49;97537.41;;;19.76
79089;BMP280;68489;50.286;9.452;2023-05-16T13:08:14;97537.97;;;20.98
79089;BMP280;68489;50.286;9.452;2023-05-16T13:10:39;97531.34;;;22.48
79089;BMP280;68489;50.286;9.452;2023-05-16T13:13:05;97524.75;;;22.24
79089;BMP280;68489;50.286;9.452;2023-05-16T13:15:30;97530.59;;;21.72
79089;BMP280;68489;50.286;9.452;2023-05-16T13:17:55;97541.16;;;20.66
79089;BMP280;68489;50.286;9.452;2023-05-16T13:20:20;97537.00;;;19.38
79089;BMP280;68489;50.286;9.452;2023-05-16T13:22:46;97539.47;;;20.17
79089;BMP280;68489;50.286;9.452;2023-05-16T13:25:11;97524.53;;;20.04
79089;BMP280;68489;50.286;9.452;2023-05-16T13:27:37;97534.38;;;20.49
79089;BMP280;68489;50.286;9.452;2023-05-16T13:30:02;97538.81;;;22.42
79089;BMP280;68489;50.286;9.452;2023-05-16T13:32:30;97536.38;;;21.38
79089;BMP280;68489;50.286;9.452;2023-05-16T13:34:55;97547.97;;;21.03
79089;BMP280;68489;50.286;9.452;2023-05-16T13:37:21;97548.25;;;20.28
79089;BMP280;68489;50.286;9.452;2023-05-16T13:39:48;97539.47;;;20.58
79089;BMP280;68489;50.286;9.452;2023-05-16T13:42:13;97549.97;;;19.51
79089;BMP280;68489;50.286;9.452;2023-05-16T13:44:38;97548.69;;;18.57
79089;BMP280;68489;50.286;9.452;2023-05-16T13:47:04;97534.50;;;17.91
79089;BMP280;68489;50.286;9.452;2023-05-16T13:49:29;97550.66;;;17.22
79089;BMP280;68489;50.286;9.452;2023-05-16T13:51:54;97543.63;;;18.92
79089;BMP280;68489;50.286;9.452;2023-05-16T13:54:21;97550.59;;;20.49
79089;BMP280;68489;50.286;9.452;2023-05-16T13:56:46;97539.09;;;19.79
79089;BMP280;68489;50.286;9.452;2023-05-16T13:59:12;97547.03;;;20.18
79089;BMP280;68489;50.286;9.452;2023-05-16T14:01:37;97550.75;;;20.62
79089;BMP280;68489;50.286;9.452;2023-05-16T14:04:02;97539.81;;;21.39
79089;BMP280;68489;50.286;9.452;2023-05-16T14:06:28;97550.34;;;21.67
79089;BMP280;68489;50.286;9.452;2023-05-16T14:08:53;97556.41;;;22.67
79089;BMP280;68489;50.286;9.452;2023-05-16T14:11:18;97548.91;;;23.32
79089;BMP280;68489;50.286;9.452;2023-05-16T14:13:47;97558.00;;;23.21
79089;BMP280;68489;50.286;9.452;2023-05-16T14:16:13;97555.28;;;21.87
79089;BMP280;68489;50.286;9.452;2023-05-16T14:18:38;97560.13;;;20.91
79089;BMP280;68489;50.286;9.452;2023-05-16T14:21:04;97569.50;;;21.69
79089;BMP280;68489;50.286;9.452;2023-05-16T14:23:29;97569.84;;;22.03
79089;BMP280;68489;50.286;9.452;2023-05-16T14:25:54;97567.69;;;21.77
79089;BMP280;68489;50.286;9.452;2023-05-16T14:28:20;97561.41;;;22.31